Time;durP1;ratioP1;P1;durP2;ratioP2;P2;SDS_P1;SDS_P2;PMS_P1;PMS_P2;Temp;Humidity;BMP_temperature;BMP_pressure;BME280_temperature;BME280_humidity;BME280_pressure;Samples;Min_cycle;Max_cycle;Signal;HPM_P1;HPM_P2
2021/05/21 00:00:10;;;;;;;1.50;0.47;;;7.30;99.90;;;;;;6189780;28;20216;-72
2021/05/21 00:03:11;;;;;;;1.23;0.60;;;7.30;99.90;;;;;;6189377;28;20682;-71
2021/05/21 00:06:13;;;;;;;1.17;0.50;;;7.30;99.90;;;;;;6188492;28;20674;-71
2021/05/21 00:09:15;;;;;;;0.60;0.50;;;7.30;99.90;;;;;;6206225;28;20210;-71
2021/05/21 00:12:18;;;;;;;0.70;0.70;;;7.30;99.90;;;;;;6206587;28;20268;-71
2021/05/21 00:15:20;;;;;;;4.13;0.70;;;7.20;99.90;;;;;;6189232;28;20335;-71
2021/05/21 00:18:22;;;;;;;0.60;0.60;;;7.20;99.90;;;;;;6173885;28;20226;-71
2021/05/21 00:21:24;;;;;;;1.80;0.53;;;7.20;99.90;;;;;;6168691;28;20388;-71
2021/05/21 00:24:26;;;;;;;0.83;0.40;;;7.10;99.90;;;;;;6192926;28;20232;-71
2021/05/21 00:27:28;;;;;;;0.40;0.40;;;7.10;99.90;;;;;;6193819;28;20589;-71
2021/05/21 00:30:30;;;;;;;2.77;0.60;;;7.00;99.90;;;;;;6209965;28;20224;-71
2021/05/21 00:33:32;;;;;;;2.77;0.60;;;7.00;99.90;;;;;;6193488;28;20239;-71
2021/05/21 00:36:34;;;;;;;0.83;0.67;;;6.90;99.90;;;;;;6210059;28;20319;-71
2021/05/21 00:39:36;;;;;;;0.57;0.57;;;6.90;99.90;;;;;;6193065;28;20235;-71
2021/05/21 00:42:38;;;;;;;1.33;0.50;;;6.90;99.90;;;;;;6210525;28;20232;-71
2021/05/21 00:45:40;;;;;;;0.97;0.50;;;6.90;99.90;;;;;;6210451;28;20255;-71
2021/05/21 00:48:42;;;;;;;1.77;0.63;;;6.80;99.90;;;;;;6192658;28;20265;-71
2021/05/21 00:51:45;;;;;;;2.40;0.60;;;6.90;99.90;;;;;;6192862;28;20233;-71
2021/05/21 00:54:49;;;;;;;2.97;0.50;;;6.80;99.90;;;;;;6209045;28;20268;-71
2021/05/21 00:57:51;;;;;;;3.83;0.77;;;6.80;99.90;;;;;;6193486;28;20240;-71
2021/05/21 01:00:55;;;;;;;1.00;0.50;;;6.80;99.90;;;;;;6198720;28;20233;-71
2021/05/21 01:03:57;;;;;;;0.70;0.57;;;6.70;99.90;;;;;;6199925;28;20240;-71
2021/05/21 01:07:00;;;;;;;4.53;0.60;;;6.70;99.90;;;;;;6184763;28;20654;-71
2021/05/21 01:10:03;;;;;;;0.57;0.50;;;6.70;99.90;;;;;;6184605;28;20271;-71
2021/05/21 01:13:05;;;;;;;0.60;0.60;;;6.70;99.90;;;;;;6184248;28;20325;-71
2021/05/21 01:16:07;;;;;;;0.77;0.50;;;6.70;99.90;;;;;;6166995;28;20238;-71
2021/05/21 01:19:09;;;;;;;2.57;0.57;;;6.70;99.90;;;;;;6184370;28;20327;-71
2021/05/21 01:22:12;;;;;;;1.37;0.70;;;6.70;99.90;;;;;;6190827;28;20229;-70
2021/05/21 01:25:14;;;;;;;0.47;0.47;;;6.70;99.90;;;;;;6191096;28;20232;-70
2021/05/21 01:28:17;;;;;;;2.20;0.90;;;6.70;99.90;;;;;;6208229;28;20322;-70
2021/05/21 01:31:20;;;;;;;0.63;0.40;;;6.60;99.90;;;;;;6209155;28;20232;-70
2021/05/21 01:34:22;;;;;;;0.50;0.40;;;6.60;99.90;;;;;;6192065;28;20224;-70
2021/05/21 01:37:24;;;;;;;2.97;0.50;;;6.60;99.90;;;;;;6190321;28;20229;-70
2021/05/21 01:40:27;;;;;;;0.40;0.40;;;6.50;99.90;;;;;;6206707;28;20232;-70
2021/05/21 01:43:30;;;;;;;1.10;0.70;;;6.50;99.90;;;;;;6184318;28;20222;-70
2021/05/21 01:46:33;;;;;;;0.60;0.53;;;6.50;99.90;;;;;;6183598;28;20713;-70
2021/05/21 01:49:35;;;;;;;0.53;0.50;;;6.40;99.90;;;;;;6182984;28;20711;-70
2021/05/21 01:52:37;;;;;;;3.27;0.70;;;6.40;99.90;;;;;;6194698;28;20243;-70
2021/05/21 01:55:48;;;;;;;2.70;0.60;;;6.40;99.90;;;;;;6209193;28;20231;-70
2021/05/21 01:58:50;;;;;;;3.57;0.60;;;6.40;99.90;;;;;;6192033;28;20264;-70
2021/05/21 02:01:53;;;;;;;0.53;0.50;;;6.30;99.90;;;;;;6208686;28;20230;-70
2021/05/21 02:04:55;;;;;;;2.60;0.40;;;6.30;99.90;;;;;;6209127;28;20225;-70
2021/05/21 02:07:57;;;;;;;4.23;0.70;;;6.30;99.90;;;;;;6208523;28;20311;-70
2021/05/21 02:10:59;;;;;;;0.60;0.60;;;6.20;99.90;;;;;;6189851;28;20221;-70
2021/05/21 02:14:02;;;;;;;1.23;0.40;;;6.20;99.90;;;;;;6190531;28;20243;-70
2021/05/21 02:17:04;;;;;;;1.23;0.67;;;6.20;99.90;;;;;;6199642;28;20233;-70
2021/05/21 02:20:07;;;;;;;0.50;0.50;;;6.20;99.90;;;;;;6183413;28;20236;-70
2021/05/21 02:23:10;;;;;;;0.67;0.50;;;6.20;99.90;;;;;;6198683;28;20240;-70
2021/05/21 02:26:12;;;;;;;1.53;0.50;;;6.20;99.90;;;;;;6191429;28;20236;-70
2021/05/21 02:29:14;;;;;;;0.53;0.30;;;6.20;99.90;;;;;;6181282;28;20239;-70
2021/05/21 02:32:16;;;;;;;1.37;0.30;;;6.20;99.90;;;;;;6154078;28;20705;-70
2021/05/21 02:35:19;;;;;;;0.60;0.27;;;6.10;99.90;;;;;;6159395;28;20222;-70
2021/05/21 02:38:21;;;;;;;0.80;0.60;;;6.10;99.90;;;;;;6173630;28;20226;-70
2021/05/21 02:41:23;;;;;;;0.80;0.60;;;6.10;99.90;;;;;;6172787;28;20226;-70
2021/05/21 02:44:25;;;;;;;0.30;0.30;;;6.20;99.90;;;;;;6158158;28;20226;-70
2021/05/21 02:47:27;;;;;;;2.77;0.50;;;6.20;99.90;;;;;;6172903;28;20229;-70
2021/05/21 02:50:29;;;;;;;0.40;0.40;;;6.30;99.90;;;;;;6173230;28;20226;-70
2021/05/21 02:53:31;;;;;;;2.40;0.50;;;6.30;99.90;;;;;;6191554;28;20229;-70
2021/05/21 02:56:33;;;;;;;0.30;0.27;;;6.30;99.90;;;;;;6181808;28;20228;-70
2021/05/21 02:59:35;;;;;;;2.93;0.43;;;6.30;99.90;;;;;;6181991;28;20233;-70
2021/05/21 03:02:38;;;;;;;3.53;0.50;;;6.20;99.90;;;;;;6182953;28;20233;-70
2021/05/21 03:05:40;;;;;;;1.53;0.50;;;6.20;99.90;;;;;;6183302;28;20598;-70
2021/05/21 03:08:42;;;;;;;0.70;0.50;;;6.20;99.90;;;;;;6182186;28;20229;-71
2021/05/21 03:11:44;;;;;;;2.60;0.50;;;6.20;99.90;;;;;;6182101;28;20702;-71
2021/05/21 03:14:45;;;;;;;0.80;0.50;;;6.20;99.90;;;;;;6183097;28;20221;-70
2021/05/21 03:17:47;;;;;;;0.73;0.40;;;6.20;99.90;;;;;;6182292;28;20228;-70
2021/05/21 03:20:51;;;;;;;2.53;0.50;;;6.20;99.90;;;;;;6196949;28;20232;-70
2021/05/21 03:23:53;;;;;;;2.30;0.40;;;6.10;99.90;;;;;;6182147;28;20233;-70
2021/05/21 03:26:55;;;;;;;3.07;0.40;;;6.20;99.90;;;;;;6179883;28;20286;-70
2021/05/21 03:29:58;;;;;;;1.10;0.40;;;6.10;99.90;;;;;;6181537;28;20274;-70
2021/05/21 03:33:00;;;;;;;0.30;0.30;;;6.10;99.90;;;;;;6180317;28;20239;-70
2021/05/21 03:36:04;;;;;;;1.53;0.47;;;6.10;99.90;;;;;;6181190;28;20311;-70
2021/05/21 03:39:08;;;;;;;0.57;0.43;;;6.20;99.90;;;;;;6181132;28;20666;-71
2021/05/21 03:42:10;;;;;;;0.30;0.30;;;6.20;99.90;;;;;;6183046;28;20643;-71
2021/05/21 03:45:13;;;;;;;1.13;0.30;;;6.30;99.90;;;;;;6179867;28;20678;-71
2021/05/21 03:48:15;;;;;;;1.70;0.50;;;6.30;99.90;;;;;;6181988;28;20205;-71
2021/05/21 03:51:17;;;;;;;0.60;0.50;;;6.40;99.90;;;;;;6185331;28;20686;-71
2021/05/21 03:54:20;;;;;;;0.40;0.40;;;6.50;99.90;;;;;;6163154;28;20238;-71
2021/05/21 03:57:22;;;;;;;1.40;0.57;;;6.50;99.90;;;;;;6163676;28;20634;-71
2021/05/21 04:00:24;;;;;;;0.50;0.40;;;6.60;99.90;;;;;;6161951;28;20221;-70
2021/05/21 04:03:26;;;;;;;1.30;0.50;;;6.60;99.90;;;;;;6163645;28;20221;-70
2021/05/21 04:06:28;;;;;;;1.70;0.43;;;6.60;99.90;;;;;;6163975;28;20273;-70
2021/05/21 04:09:31;;;;;;;1.47;0.60;;;6.60;99.90;;;;;;6162601;28;20297;-71
2021/05/21 04:12:33;;;;;;;1.87;0.50;;;6.60;99.90;;;;;;6176824;28;20222;-71
2021/05/21 04:15:35;;;;;;;0.80;0.80;;;6.70;99.90;;;;;;6176423;28;20226;-71
2021/05/21 04:18:37;;;;;;;1.50;0.33;;;6.70;99.90;;;;;;6181114;28;20235;-71
2021/05/21 04:21:40;;;;;;;0.40;0.40;;;6.70;99.90;;;;;;6186825;28;20332;-71
2021/05/21 04:24:42;;;;;;;0.40;0.40;;;6.80;99.90;;;;;;6169390;28;20316;-70
2021/05/21 04:27:44;;;;;;;0.83;0.40;;;6.80;99.90;;;;;;6186792;28;20268;-70
2021/05/21 04:30:46;;;;;;;0.73;0.40;;;6.90;99.90;;;;;;6190620;28;20235;-70
2021/05/21 04:33:50;;;;;;;0.37;0.33;;;6.90;99.90;;;;;;6210103;28;20240;-70
2021/05/21 04:36:52;;;;;;;1.67;0.50;;;6.90;99.90;;;;;;6192947;28;20240;-70
2021/05/21 04:39:54;;;;;;;1.60;0.30;;;7.00;99.90;;;;;;6210078;28;20229;-70
2021/05/21 04:43:22;;;;;;;0.30;0.30;;;7.00;99.90;;;;;;6210631;28;20228;-71
2021/05/21 04:46:24;;;;;;;0.47;0.33;;;7.00;99.90;;;;;;6211168;28;20240;-71
2021/05/21 04:49:32;;;;;;;0.30;0.30;;;7.00;99.90;;;;;;6192561;28;20229;-71
2021/05/21 04:52:34;;;;;;;0.20;0.20;;;7.00;99.90;;;;;;6208773;28;20631;-71
2021/05/21 04:55:36;;;;;;;0.93;0.30;;;7.00;99.90;;;;;;6191407;28;20225;-71
2021/05/21 04:58:38;;;;;;;0.60;0.40;;;7.00;99.90;;;;;;6209260;28;20225;-71
2021/05/21 05:01:41;;;;;;;0.33;0.30;;;7.10;99.90;;;;;;6199767;28;20226;-71
2021/05/21 05:04:43;;;;;;;1.90;0.50;;;7.10;99.90;;;;;;6209665;28;20693;-71
2021/05/21 05:07:45;;;;;;;0.40;0.40;;;7.10;99.90;;;;;;6210064;28;20255;-71
2021/05/21 05:10:49;;;;;;;1.13;0.33;;;7.10;99.90;;;;;;6224024;28;20231;-71
2021/05/21 05:13:51;;;;;;;0.53;0.50;;;7.10;99.90;;;;;;6209072;28;20333;-71
2021/05/21 05:16:54;;;;;;;0.30;0.30;;;7.10;99.90;;;;;;6207467;28;20236;-71
2021/05/21 05:19:56;;;;;;;1.23;0.43;;;7.20;99.90;;;;;;6223648;28;20237;-71
2021/05/21 05:22:58;;;;;;;2.30;0.40;;;7.20;99.90;;;;;;6209360;28;20236;-71
2021/05/21 05:26:00;;;;;;;0.53;0.40;;;7.20;99.90;;;;;;6208733;28;20228;-71
2021/05/21 05:29:02;;;;;;;1.70;0.33;;;7.30;99.90;;;;;;6190586;28;20720;-71
2021/05/21 05:32:04;;;;;;;1.60;0.50;;;7.40;99.90;;;;;;6191398;28;20240;-71
2021/05/21 05:35:07;;;;;;;0.40;0.30;;;7.40;99.90;;;;;;6206971;28;20238;-70
2021/05/21 05:38:09;;;;;;;0.77;0.50;;;7.50;99.90;;;;;;6190528;28;20224;-71
2021/05/21 05:41:11;;;;;;;1.50;0.50;;;7.50;99.90;;;;;;6208760;28;20232;-71
2021/05/21 05:44:13;;;;;;;3.33;0.60;;;7.60;99.90;;;;;;6189980;28;20224;-70
2021/05/21 05:47:15;;;;;;;0.50;0.50;;;7.60;99.90;;;;;;6208413;28;20224;-71
2021/05/21 05:50:17;;;;;;;0.50;0.50;;;7.70;99.90;;;;;;6190786;28;20255;-71
2021/05/21 05:53:19;;;;;;;1.90;0.40;;;7.70;99.90;;;;;;6207567;28;20235;-71
2021/05/21 05:56:21;;;;;;;0.40;0.40;;;7.80;99.90;;;;;;6208156;28;20233;-71
2021/05/21 05:59:25;;;;;;;2.30;0.60;;;7.80;99.90;;;;;;6190334;28;20231;-71
2021/05/21 06:02:27;;;;;;;2.43;0.60;;;7.90;99.90;;;;;;6207837;28;20231;-71
2021/05/21 06:05:30;;;;;;;0.50;0.40;;;7.90;99.90;;;;;;6209343;28;20229;-71
2021/05/21 06:08:32;;;;;;;0.40;0.40;;;8.00;99.90;;;;;;6207144;28;20235;-71
2021/05/21 06:11:35;;;;;;;0.30;0.30;;;8.10;99.90;;;;;;6207574;28;20225;-71
2021/05/21 06:14:37;;;;;;;2.37;0.50;;;8.20;99.90;;;;;;6207686;28;20608;-71
2021/05/21 06:17:39;;;;;;;0.77;0.60;;;8.20;99.90;;;;;;6206906;28;20238;-71
2021/05/21 06:20:41;;;;;;;1.47;0.40;;;8.40;99.90;;;;;;6206009;28;20607;-71
2021/05/21 06:23:46;;;;;;;1.97;0.53;;;8.50;99.90;;;;;;6206781;28;20243;-71
2021/05/21 06:30:13;;;;;;;1.77;0.90;;;9.00;99.90;;;;;;6207053;28;20227;-71
2021/05/21 06:33:15;;;;;;;0.70;0.33;;;9.20;99.90;;;;;;6189073;28;20688;-71
2021/05/21 06:36:18;;;;;;;1.93;0.40;;;9.40;99.90;;;;;;6207541;28;20287;-71
2021/05/21 06:39:20;;;;;;;3.70;0.40;;;9.70;99.90;;;;;;6189641;28;20208;-72
2021/05/21 06:42:22;;;;;;;0.73;0.40;;;10.10;99.90;;;;;;6206044;28;20226;-71
2021/05/21 06:45:25;;;;;;;0.87;0.40;;;10.40;99.90;;;;;;6189363;28;20713;-71
2021/05/21 06:48:32;;;;;;;1.67;0.40;;;10.70;99.90;;;;;;6207487;28;20622;-71
2021/05/21 06:51:34;;;;;;;1.60;0.40;;;11.10;99.90;;;;;;6189935;28;20227;-71
2021/05/21 06:54:37;;;;;;;2.00;0.27;;;11.50;99.90;;;;;;6206704;28;20239;-71
2021/05/21 06:57:38;;;;;;;2.20;0.40;;;12.00;99.90;;;;;;6206419;28;20237;-71
2021/05/21 07:00:42;;;;;;;0.40;0.20;;;12.40;99.90;;;;;;6189525;28;20304;-71
2021/05/21 07:03:44;;;;;;;0.67;0.30;;;12.70;99.90;;;;;;6207344;28;20246;-71
2021/05/21 07:06:46;;;;;;;0.60;0.30;;;13.00;99.90;;;;;;6205162;28;20232;-71
2021/05/21 07:09:48;;;;;;;2.50;0.40;;;13.30;99.90;;;;;;6206503;28;20701;-71
2021/05/21 07:12:50;;;;;;;0.20;0.20;;;13.60;99.90;;;;;;6189061;28;20236;-71
2021/05/21 07:15:52;;;;;;;0.73;0.40;;;13.90;99.90;;;;;;6206887;28;20226;-71
2021/05/21 07:18:54;;;;;;;0.20;0.20;;;14.20;99.90;;;;;;6205415;28;20233;-71
2021/05/21 07:21:56;;;;;;;1.13;0.47;;;14.40;96.60;;;;;;6205859;28;20377;-71
2021/05/21 07:24:58;;;;;;;3.03;0.50;;;14.60;98.80;;;;;;6206796;28;20227;-71
2021/05/21 07:27:59;;;;;;;0.50;0.50;;;14.80;97.00;;;;;;6206678;28;20235;-71
2021/05/21 07:31:01;;;;;;;1.30;0.57;;;15.20;95.50;;;;;;6205116;28;20236;-70
2021/05/21 07:34:03;;;;;;;0.50;0.30;;;15.50;95.30;;;;;;6206161;28;20236;-71
2021/05/21 07:37:06;;;;;;;0.40;0.30;;;15.80;94.20;;;;;;6205817;28;20236;-71
2021/05/21 07:40:12;;;;;;;0.93;0.43;;;16.20;95.40;;;;;;6189004;28;20232;-71
2021/05/21 07:43:14;;;;;;;1.10;0.30;;;16.50;95.20;;;;;;6207220;28;20229;-71
2021/05/21 07:46:16;;;;;;;0.33;0.30;;;16.80;96.70;;;;;;6207034;28;20685;-71
2021/05/21 07:49:22;;;;;;;2.53;0.50;;;17.10;91.60;;;;;;6204681;28;20599;-71
2021/05/21 07:52:24;;;;;;;3.97;0.77;;;17.30;91.00;;;;;;6204313;28;20315;-71
2021/05/21 07:55:26;;;;;;;0.60;0.40;;;17.60;89.50;;;;;;6188050;28;20246;-71
2021/05/21 07:58:29;;;;;;;1.53;0.50;;;17.90;87.80;;;;;;6189376;28;20230;-71
2021/05/21 08:01:31;;;;;;;3.47;0.50;;;18.30;86.50;;;;;;6204218;28;20252;-71
2021/05/21 08:04:33;;;;;;;1.80;0.50;;;18.60;87.70;;;;;;6205900;28;20228;-71
2021/05/21 08:07:35;;;;;;;1.93;0.53;;;18.90;91.80;;;;;;6188871;28;20704;-71
2021/05/21 08:10:37;;;;;;;1.53;0.30;;;19.10;91.20;;;;;;6204383;28;20225;-70
2021/05/21 08:13:39;;;;;;;3.50;0.40;;;19.40;90.80;;;;;;6205947;28;20236;-71
2021/05/21 08:16:41;;;;;;;0.83;0.30;;;19.60;85.90;;;;;;6188235;28;20224;-71
2021/05/21 08:19:44;;;;;;;0.50;0.23;;;19.80;76.20;;;;;;6205064;28;20232;-71
2021/05/21 08:22:47;;;;;;;2.23;0.43;;;20.00;83.00;;;;;;6206899;28;20232;-71
2021/05/21 08:25:49;;;;;;;0.90;0.40;;;20.20;84.00;;;;;;6187864;28;21061;-71
2021/05/21 08:28:55;;;;;;;1.77;0.80;;;20.50;83.10;;;;;;6204746;28;20319;-71
2021/05/21 08:32:00;;;;;;;0.40;0.37;;;20.60;68.20;;;;;;6205034;28;20256;-71
2021/05/21 08:35:02;;;;;;;1.93;0.40;;;20.70;62.50;;;;;;6204913;28;20247;-71
2021/05/21 08:38:04;;;;;;;1.27;0.50;;;20.80;58.80;;;;;;6197351;28;20228;-71
2021/05/21 08:41:07;;;;;;;0.43;0.40;;;20.90;63.70;;;;;;6192049;28;20255;-71
2021/05/21 08:44:09;;;;;;;0.33;0.20;;;21.00;60.00;;;;;;6209551;28;20255;-71
2021/05/21 08:47:12;;;;;;;0.40;0.30;;;21.30;63.50;;;;;;6209593;28;20236;-72
2021/05/21 08:50:14;;;;;;;0.30;0.30;;;21.60;63.70;;;;;;6209418;28;20228;-73
2021/05/21 08:53:17;;;;;;;1.13;0.30;;;22.10;57.20;;;;;;6209559;28;20225;-72
2021/05/21 08:56:19;;;;;;;0.60;0.40;;;22.30;58.80;;;;;;6191474;28;20221;-72
2021/05/21 08:59:22;;;;;;;0.70;0.40;;;22.70;65.40;;;;;;6191694;28;20227;-72
2021/05/21 09:02:28;;;;;;;0.70;0.30;;;22.80;56.30;;;;;;6210133;28;20251;-72
2021/05/21 09:05:30;;;;;;;1.37;0.30;;;23.00;51.00;;;;;;6206905;28;20230;-72
2021/05/21 09:08:33;;;;;;;0.57;0.30;;;23.00;56.90;;;;;;6208962;28;20228;-72
2021/05/21 09:11:40;;;;;;;2.70;0.50;;;22.90;61.20;;;;;;6189842;28;20315;-72
2021/05/21 09:14:42;;;;;;;3.50;0.40;;;22.70;61.10;;;;;;6191149;28;20244;-72
2021/05/21 09:17:50;;;;;;;0.60;0.30;;;22.60;57.00;;;;;;6200751;28;20662;-72
2021/05/21 09:20:53;;;;;;;0.20;0.20;;;22.40;55.10;;;;;;6218095;28;20223;-72
2021/05/21 09:24:02;;;;;;;2.83;0.37;;;22.30;55.00;;;;;;6203891;28;20625;-72
2021/05/21 09:27:06;;;;;;;0.93;0.20;;;22.40;57.30;;;;;;6197560;28;20233;-72
2021/05/21 09:30:09;;;;;;;0.57;0.30;;;22.70;62.10;;;;;;6173895;28;20208;-72
2021/05/21 09:33:11;;;;;;;4.67;0.40;;;23.10;60.40;;;;;;6181946;28;20578;-72
2021/05/21 09:36:13;;;;;;;0.30;0.27;;;23.50;60.60;;;;;;6183388;28;20217;-72
2021/05/21 09:39:15;;;;;;;3.37;0.57;;;23.70;61.10;;;;;;6167330;28;20202;-73
2021/05/21 09:42:26;;;;;;;1.40;0.50;;;23.80;54.80;;;;;;6167984;28;20225;-72
2021/05/21 09:45:37;;;;;;;2.77;0.60;;;23.70;53.80;;;;;;6185288;28;20229;-71
2021/05/21 09:48:40;;;;;;;2.00;0.30;;;23.80;53.50;;;;;;6182740;28;20248;-71
2021/05/21 09:51:54;;;;;;;0.30;0.20;;;23.90;51.20;;;;;;6182339;28;20231;-72
2021/05/21 09:54:57;;;;;;;0.20;0.20;;;24.10;52.60;;;;;;6181903;28;20240;-72
2021/05/21 09:57:59;;;;;;;0.53;0.30;;;24.20;53.30;;;;;;6183283;28;20224;-71
2021/05/21 10:01:08;;;;;;;0.57;0.40;;;24.30;55.00;;;;;;6181782;28;20256;-72
2021/05/21 10:04:10;;;;;;;0.97;0.30;;;24.40;52.90;;;;;;6183398;28;20821;-72
2021/05/21 10:07:13;;;;;;;1.53;0.20;;;24.60;50.20;;;;;;6167449;28;20710;-72
2021/05/21 10:10:16;;;;;;;2.60;0.30;;;24.70;47.30;;;;;;6182642;28;20714;-72
2021/05/21 10:13:18;;;;;;;0.50;0.23;;;24.60;46.70;;;;;;6182607;28;20229;-73
2021/05/21 10:16:21;;;;;;;1.90;0.20;;;24.70;46.60;;;;;;6184125;28;20315;-73
2021/05/21 10:19:26;;;;;;;0.73;0.40;;;24.80;47.90;;;;;;6165576;28;20840;-72
2021/05/21 10:22:39;;;;;;;2.53;0.37;;;24.80;44.70;;;;;;6184529;28;20316;-72
2021/05/21 10:25:41;;;;;;;0.57;0.47;;;24.90;43.90;;;;;;6183599;28;20280;-72
2021/05/21 10:28:46;;;;;;;0.50;0.20;;;25.20;46.80;;;;;;6165756;28;20265;-72
2021/05/21 10:31:53;;;;;;;1.23;0.30;;;25.50;42.80;;;;;;6197703;28;20306;-72
2021/05/21 10:34:54;;;;;;;1.55;0.25;;;25.80;46.50;;;;;;6207976;28;20323;-72
2021/05/21 10:38:25;;;;;;;0.25;0.20;;;26.00;47.00;;;;;;6206836;28;20311;-72
2021/05/21 10:41:53;;;;;;;0.73;0.40;;;26.50;46.50;;;;;;6208795;28;20287;-73
2021/05/21 10:45:13;;;;;;;1.90;0.43;;;26.90;44.10;;;;;;6189396;28;20578;-72
2021/05/21 10:48:25;;;;;;;1.73;0.50;;;26.70;42.10;;;;;;6190664;28;20228;-72
2021/05/21 10:51:47;;;;;;;0.43;0.40;;;26.50;41.80;;;;;;6189594;28;20228;-72
2021/05/21 10:54:51;;;;;;;0.75;0.40;;;26.30;43.00;;;;;;6189574;28;20232;-72
2021/05/21 10:58:00;;;;;;;1.92;0.60;;;26.20;47.40;;;;;;6190515;28;20243;-73
2021/05/21 11:01:23;;;;;;;3.33;0.47;;;26.00;44.20;;;;;;6195576;28;20226;-73
2021/05/21 11:04:29;;;;;;;5.68;0.57;;;25.60;44.20;;;;;;6197579;28;20244;-72
2021/05/21 11:07:40;;;;;;;0.87;0.40;;;25.30;43.40;;;;;;6181238;28;20702;-72
2021/05/21 11:10:44;;;;;;;0.50;0.30;;;25.20;45.20;;;;;;6181773;28;20225;-72
2021/05/21 11:14:03;;;;;;;2.03;0.57;;;25.30;43.40;;;;;;6180918;28;20243;-72
2021/05/21 11:17:15;;;;;;;0.73;0.50;;;25.40;45.60;;;;;;6181387;28;20589;-72
2021/05/21 11:20:17;;;;;;;0.80;0.30;;;25.30;45.90;;;;;;6181829;28;20634;-72
2021/05/21 11:23:24;;;;;;;2.42;0.57;;;25.50;43.30;;;;;;6180068;28;20229;-73
2021/05/21 11:26:27;;;;;;;5.30;0.70;;;25.70;42.80;;;;;;6189863;28;20216;-72
2021/05/21 11:29:29;;;;;;;1.53;0.40;;;25.50;44.40;;;;;;6189510;28;20231;-72
2021/05/21 11:32:31;;;;;;;1.03;0.53;;;25.50;44.80;;;;;;6188125;28;20228;-72
2021/05/21 11:35:34;;;;;;;1.03;0.33;;;25.40;43.40;;;;;;6206381;28;20246;-72
2021/05/21 11:38:38;;;;;;;1.25;0.50;;;25.40;43.60;;;;;;6207417;28;20232;-73
2021/05/21 11:41:44;;;;;;;1.03;0.43;;;25.50;45.80;;;;;;6180055;28;20716;-72
2021/05/21 11:44:54;;;;;;;2.00;0.37;;;25.60;43.40;;;;;;6181379;28;20609;-72
2021/05/21 11:47:56;;;;;;;0.30;0.30;;;25.60;43.80;;;;;;6181067;28;20230;-73
2021/05/21 11:51:01;;;;;;;1.25;0.50;;;25.60;43.20;;;;;;6163666;28;20220;-72
2021/05/21 11:54:07;;;;;;;1.60;0.40;;;25.60;43.90;;;;;;6202728;28;20229;-72
2021/05/21 11:57:12;;;;;;;0.43;0.43;;;25.50;46.40;;;;;;6188874;28;20290;-72
2021/05/21 12:00:15;;;;;;;0.45;0.30;;;25.50;49.10;;;;;;6206573;28;20212;-72
2021/05/21 12:03:17;;;;;;;0.32;0.30;;;25.60;44.40;;;;;;6189147;28;20216;-72
2021/05/21 12:06:20;;;;;;;1.27;0.30;;;25.60;46.00;;;;;;6206119;28;20279;-72
2021/05/21 12:09:23;;;;;;;1.13;0.40;;;25.80;45.70;;;;;;6187678;28;20225;-73
2021/05/21 12:12:26;;;;;;;1.10;0.40;;;25.70;43.30;;;;;;6209514;28;20220;-72
2021/05/21 12:15:28;;;;;;;1.38;0.50;;;25.60;46.40;;;;;;6194160;28;20236;-72
2021/05/21 12:18:32;;;;;;;1.00;0.40;;;25.50;48.80;;;;;;6173693;28;20231;-72
2021/05/21 12:21:38;;;;;;;2.33;0.40;;;25.60;50.60;;;;;;6170644;28;20229;-72
2021/05/21 12:24:41;;;;;;;1.75;0.60;;;25.80;52.00;;;;;;6192881;28;20262;-72
2021/05/21 12:27:43;;;;;;;0.70;0.40;;;25.90;52.30;;;;;;6193570;28;20250;-72
2021/05/21 12:30:45;;;;;;;3.17;0.43;;;25.80;51.10;;;;;;6212038;28;20236;-72
2021/05/21 12:33:47;;;;;;;2.92;0.65;;;25.70;49.70;;;;;;6210634;28;20236;-72
2021/05/21 12:37:00;;;;;;;2.67;0.40;;;25.60;52.30;;;;;;6209485;28;20228;-72
2021/05/21 12:40:02;;;;;;;2.65;0.45;;;25.40;53.30;;;;;;6192505;28;20323;-72
2021/05/21 12:43:09;;;;;;;1.17;0.60;;;25.20;53.60;;;;;;6210256;28;20290;-72
2021/05/21 12:46:14;;;;;;;2.90;0.30;;;25.20;54.00;;;;;;6193366;28;20229;-72
2021/05/21 12:49:22;;;;;;;0.67;0.33;;;25.10;52.00;;;;;;6213831;28;20597;-73
2021/05/21 12:52:23;;;;;;;0.87;0.47;;;24.90;52.50;;;;;;6208527;28;20232;-72
2021/05/21 12:55:26;;;;;;;1.92;0.55;;;24.90;52.80;;;;;;6176629;28;20244;-72
2021/05/21 12:58:39;;;;;;;5.28;0.60;;;25.00;52.20;;;;;;6192272;28;20319;-72
2021/05/21 13:01:41;;;;;;;3.30;0.50;;;24.90;54.50;;;;;;6194063;28;20432;-73
2021/05/21 13:05:09;;;;;;;0.80;0.40;;;24.80;48.90;;;;;;6184562;28;20229;-72
2021/05/21 13:08:11;;;;;;;0.90;0.50;;;24.70;52.20;;;;;;6167684;28;20222;-72
2021/05/21 13:11:14;;;;;;;1.97;0.50;;;24.90;53.90;;;;;;6199966;28;20424;-72
2021/05/21 13:14:16;;;;;;;0.40;0.30;;;25.20;54.30;;;;;;6184197;28;20229;-73
2021/05/21 13:17:18;;;;;;;2.30;0.50;;;25.40;49.40;;;;;;6185315;28;20225;-72
2021/05/21 13:20:22;;;;;;;4.27;0.80;;;25.20;48.00;;;;;;6167088;28;20720;-72
2021/05/21 13:23:24;;;;;;;3.67;0.60;;;25.40;52.10;;;;;;6215976;28;20232;-73
2021/05/21 13:26:26;;;;;;;1.05;0.63;;;25.60;48.70;;;;;;6209024;28;20271;-73
2021/05/21 13:29:28;;;;;;;4.05;0.70;;;25.50;52.00;;;;;;6209203;28;20230;-73
2021/05/21 13:32:30;;;;;;;6.10;0.60;;;25.50;52.70;;;;;;6209430;28;20239;-72
2021/05/21 13:35:35;;;;;;;5.30;0.60;;;25.20;50.70;;;;;;6209070;28;20278;-72
2021/05/21 13:38:37;;;;;;;1.90;0.57;;;24.90;52.70;;;;;;6191706;28;20716;-72
2021/05/21 13:41:40;;;;;;;1.70;0.57;;;24.70;53.70;;;;;;6197146;28;20224;-72
2021/05/21 13:44:42;;;;;;;4.17;0.80;;;24.60;51.50;;;;;;6183587;28;20232;-73
2021/05/21 13:47:44;;;;;;;2.30;0.50;;;24.30;50.80;;;;;;6165944;28;20224;-72
2021/05/21 13:50:46;;;;;;;1.80;0.57;;;24.20;54.30;;;;;;6183616;28;20229;-72
2021/05/21 13:53:49;;;;;;;2.03;0.60;;;24.30;56.20;;;;;;6186729;28;20315;-72
2021/05/21 13:56:52;;;;;;;4.03;0.50;;;24.50;55.00;;;;;;6191235;28;20229;-72
2021/05/21 13:59:54;;;;;;;3.50;0.70;;;24.50;52.80;;;;;;6209005;28;20498;-72
2021/05/21 14:02:56;;;;;;;1.80;0.63;;;24.60;55.80;;;;;;6192033;28;20307;-72
2021/05/21 14:05:58;;;;;;;0.90;0.50;;;24.70;56.10;;;;;;6207914;28;20236;-72
2021/05/21 14:09:01;;;;;;;1.63;0.60;;;24.60;53.00;;;;;;6191090;28;20643;-73
2021/05/21 14:12:04;;;;;;;1.70;0.50;;;24.60;53.00;;;;;;6189884;28;20276;-73
2021/05/21 14:15:07;;;;;;;3.60;0.53;;;24.90;55.20;;;;;;6193788;28;20260;-72
2021/05/21 14:18:09;;;;;;;2.37;0.80;;;25.20;55.50;;;;;;6191386;28;20213;-72
2021/05/21 14:21:12;;;;;;;4.80;0.70;;;25.20;55.80;;;;;;6182105;28;20307;-72
2021/05/21 14:24:14;;;;;;;1.20;0.70;;;25.20;56.40;;;;;;6207304;28;20768;-73
2021/05/21 14:27:17;;;;;;;2.63;0.50;;;24.80;56.70;;;;;;6191093;28;20211;-72
2021/05/21 14:30:20;;;;;;;1.63;0.60;;;24.30;58.70;;;;;;6207729;28;20674;-72
2021/05/21 14:33:26;;;;;;;2.20;0.57;;;23.90;59.40;;;;;;6189556;28;20721;-72
2021/05/21 14:36:28;;;;;;;3.80;0.70;;;23.70;59.70;;;;;;6189723;28;20690;-72
2021/05/21 14:39:33;;;;;;;3.47;0.60;;;23.60;60.40;;;;;;6190259;28;20256;-72
2021/05/21 14:42:35;;;;;;;6.97;0.73;;;23.60;61.10;;;;;;6207300;28;20723;-72
2021/05/21 14:45:38;;;;;;;1.63;0.47;;;23.80;62.10;;;;;;6208018;28;20228;-72
2021/05/21 14:48:41;;;;;;;4.63;0.80;;;24.30;59.30;;;;;;6206641;28;20318;-72
2021/05/21 14:51:58;;;;;;;1.40;0.57;;;25.10;58.70;;;;;;6189613;28;20360;-72
2021/05/21 14:55:00;;;;;;;5.50;0.50;;;25.80;56.90;;;;;;6207440;28;20240;-72
2021/05/21 14:58:02;;;;;;;2.90;0.70;;;26.00;57.00;;;;;;6206523;28;20236;-73
2021/05/21 15:01:05;;;;;;;3.47;0.60;;;26.00;54.10;;;;;;6195691;28;20233;-72
2021/05/21 15:04:10;;;;;;;1.33;0.67;;;26.10;53.40;;;;;;6181624;28;20233;-73
2021/05/21 15:07:12;;;;;;;3.90;0.80;;;25.80;55.10;;;;;;6181993;28;20731;-72
2021/05/21 15:10:16;;;;;;;1.57;0.70;;;25.40;54.10;;;;;;6181903;28;20233;-72
2021/05/21 15:13:24;;;;;;;4.87;0.60;;;25.40;56.40;;;;;;6180912;28;20252;-72
2021/05/21 15:26:48;;;;;;;7.53;0.97;;;24.60;58.60;;;;;;6108213;29;20235;-72
2021/05/21 15:29:50;;;;;;;3.17;0.50;;;24.50;59.60;;;;;;6124441;29;20235;-72
2021/05/21 15:32:52;;;;;;;2.10;0.50;;;24.60;59.10;;;;;;6203764;28;20232;-72
2021/05/21 15:35:54;;;;;;;1.73;0.70;;;24.50;58.70;;;;;;6206435;28;20251;-72
2021/05/21 15:38:56;;;;;;;3.73;0.40;;;24.60;59.00;;;;;;6206516;28;20234;-72
2021/05/21 15:45:27;;;;;;;2.30;0.70;;;23.90;52.20;;;;;;6162813;28;20226;-72
2021/05/21 15:49:24;;;;;;;3.77;0.80;;;23.30;52.00;;;;;;6164050;28;20312;-72
2021/05/21 15:55:38;;;;;;;3.93;0.70;;;22.40;55.10;;;;;;6206076;28;20323;-72
2021/05/21 15:58:47;;;;;;;2.97;0.90;;;22.20;55.80;;;;;;6206251;28;20751;-72
2021/05/21 16:01:49;;;;;;;2.33;0.80;;;22.10;58.70;;;;;;6187154;28;20315;-72
2021/05/21 16:04:51;;;;;;;3.63;0.60;;;21.90;57.20;;;;;;6188394;28;20298;-72
2021/05/21 16:07:53;;;;;;;2.43;0.93;;;21.60;58.30;;;;;;6189365;28;20224;-72
2021/05/21 16:10:55;;;;;;;3.63;0.87;;;21.50;59.00;;;;;;6206257;28;20994;-72
2021/05/21 16:13:57;;;;;;;5.10;0.80;;;21.50;62.70;;;;;;6189247;28;20239;-72
2021/05/21 16:16:59;;;;;;;7.87;0.77;;;21.40;66.00;;;;;;6198714;28;20233;-72
2021/05/21 16:20:02;;;;;;;7.47;0.70;;;21.30;67.40;;;;;;6162671;28;20732;-72